createdAt,value
2022-12-03T00:01:35.734Z,56.48
2022-12-03T00:04:03.858Z,56.57
2022-12-03T00:06:34.704Z,56.56
2022-12-03T00:09:03.404Z,56.56
2022-12-03T00:11:33.171Z,56.31
2022-12-03T00:14:01.232Z,56.36
2022-12-03T00:16:29.316Z,56.43
2022-12-03T00:18:57.467Z,56.43
2022-12-03T00:21:25.483Z,56.52
2022-12-03T00:23:53.506Z,56.50
2022-12-03T00:26:21.633Z,56.43
2022-12-03T00:28:51.521Z,56.40
2022-12-03T00:31:21.424Z,56.36
2022-12-03T00:33:49.571Z,56.39
2022-12-03T00:36:17.751Z,56.41
2022-12-03T00:38:45.897Z,56.19
2022-12-03T00:41:14.302Z,56.15
2022-12-03T00:43:42.329Z,56.07
2022-12-03T00:46:13.209Z,55.94
2022-12-03T00:48:42.802Z,56.26
2022-12-03T00:51:10.849Z,56.34
2022-12-03T00:53:38.869Z,56.22
2022-12-03T00:56:08.021Z,56.16
2022-12-03T00:58:36.308Z,56.13
2022-12-03T01:01:04.538Z,56.20
2022-12-03T01:03:33.955Z,56.13
2022-12-03T01:06:02.005Z,56.20
2022-12-03T01:08:30.156Z,56.11
2022-12-03T01:10:58.206Z,56.10
2022-12-03T01:13:26.277Z,56.40
2022-12-03T01:15:54.375Z,56.56
2022-12-03T01:18:22.412Z,56.53
2022-12-03T01:20:51.809Z,56.35
2022-12-03T01:23:19.792Z,56.27
2022-12-03T01:25:47.848Z,56.25
2022-12-03T01:28:15.828Z,56.22
2022-12-03T01:30:57.718Z,56.29
2022-12-03T01:33:25.746Z,56.29
2022-12-03T01:35:55.182Z,56.13
2022-12-03T01:38:23.202Z,56.24
2022-12-03T01:40:51.421Z,56.03
2022-12-03T01:43:19.464Z,56.13
2022-12-03T01:45:47.550Z,56.42
2022-12-03T01:48:17.716Z,56.39
2022-12-03T01:50:46.347Z,56.36
2022-12-03T01:53:18.369Z,56.23
2022-12-03T01:55:49.022Z,56.30
2022-12-03T01:58:18.932Z,56.21
2022-12-03T02:00:46.959Z,56.07
2022-12-03T02:03:19.106Z,55.94
2022-12-03T02:05:47.158Z,56.08
2022-12-03T02:08:34.665Z,55.73
2022-12-03T02:11:06.572Z,55.68
2022-12-03T02:13:34.940Z,55.58
2022-12-03T02:16:03.045Z,55.55
2022-12-03T02:18:31.267Z,55.43
2022-12-03T02:21:06.960Z,55.20
2022-12-03T02:23:40.772Z,55.27
2022-12-03T02:26:10.364Z,55.24
2022-12-03T02:28:39.218Z,55.19
2022-12-03T02:31:07.751Z,54.91
2022-12-03T02:33:36.009Z,54.91
2022-12-03T02:36:04.471Z,55.00
2022-12-03T02:38:33.848Z,55.10
2022-12-03T02:41:05.467Z,55.20
2022-12-03T02:43:33.881Z,55.13
2022-12-03T02:46:03.550Z,54.88
2022-12-03T02:48:35.157Z,54.87
2022-12-03T02:51:06.904Z,55.06
2022-12-03T02:53:38.296Z,55.02
2022-12-03T02:56:07.377Z,54.99
2022-12-03T02:58:37.091Z,54.88
2022-12-03T03:01:06.181Z,54.78
2022-12-03T03:03:34.776Z,54.81
2022-12-03T03:06:04.401Z,54.78
2022-12-03T03:08:33.066Z,54.91
2022-12-03T03:11:02.649Z,54.91
2022-12-03T03:13:32.244Z,55.01
2022-12-03T03:16:03.611Z,54.90
2022-12-03T03:18:31.700Z,55.27
2022-12-03T03:21:00.009Z,55.24
2022-12-03T03:23:28.254Z,55.23
2022-12-03T03:25:59.039Z,55.33
2022-12-03T03:28:29.060Z,55.28
2022-12-03T03:30:57.964Z,55.27
2022-12-03T03:33:27.970Z,55.23
2022-12-03T03:35:56.136Z,55.20
2022-12-03T03:38:25.302Z,55.13
2022-12-03T03:40:54.017Z,55.09
2022-12-03T03:43:23.276Z,55.11
2022-12-03T03:45:52.286Z,54.99
2022-12-03T03:48:21.186Z,54.99
2022-12-03T03:50:51.725Z,54.37
2022-12-03T03:53:20.759Z,54.71
2022-12-03T03:55:49.293Z,54.90
2022-12-03T03:58:17.927Z,54.88
2022-12-03T04:00:47.182Z,54.87
2022-12-03T04:03:15.319Z,54.80
2022-12-03T04:05:43.404Z,55.07
2022-12-03T04:08:12.836Z,55.26
2022-12-03T04:10:58.209Z,55.42
2022-12-03T04:13:26.295Z,55.29
2022-12-03T04:15:54.335Z,55.25
2022-12-03T04:18:39.894Z,55.22
2022-12-03T04:21:25.164Z,55.29
2022-12-03T04:23:54.564Z,55.51
2022-12-03T04:26:39.948Z,55.56
2022-12-03T04:29:08.220Z,55.47
2022-12-03T04:31:53.866Z,55.50
2022-12-03T04:34:39.152Z,55.44
2022-12-03T04:37:07.245Z,55.28
2022-12-03T04:39:37.172Z,55.36
2022-12-03T04:42:06.020Z,55.29
2022-12-03T04:44:36.213Z,55.33
2022-12-03T04:47:07.373Z,55.12
2022-12-03T04:49:36.482Z,55.00
2022-12-03T04:52:05.217Z,55.10
2022-12-03T04:54:33.397Z,55.04
2022-12-03T04:57:03.114Z,55.11
2022-12-03T04:59:31.176Z,55.13
2022-12-03T05:01:59.427Z,55.15
2022-12-03T05:04:27.561Z,55.15
2022-12-03T05:06:55.605Z,55.07
2022-12-03T05:09:23.655Z,55.28
2022-12-03T05:11:51.687Z,55.39
2022-12-03T05:14:21.206Z,55.41
2022-12-03T05:16:49.324Z,55.47
2022-12-03T05:19:17.547Z,55.42
2022-12-03T05:21:44.628Z,55.39
2022-12-03T05:24:12.696Z,55.16
2022-12-03T05:26:40.726Z,55.26
2022-12-03T05:29:08.814Z,55.19
2022-12-03T05:31:38.214Z,55.26
2022-12-03T05:34:06.255Z,55.22
2022-12-03T05:36:34.337Z,55.22
2022-12-03T05:39:02.387Z,55.23
2022-12-03T05:41:47.942Z,55.28
2022-12-03T05:44:20.267Z,55.30
2022-12-03T05:46:50.202Z,55.33
2022-12-03T05:49:18.233Z,55.52
2022-12-03T05:51:46.230Z,55.71
2022-12-03T05:54:14.247Z,55.86
2022-12-03T05:56:42.339Z,55.79
2022-12-03T05:59:10.304Z,55.66
2022-12-03T06:01:38.384Z,55.71
2022-12-03T06:04:07.879Z,56.01
2022-12-03T06:06:36.007Z,56.01
2022-12-03T06:09:04.058Z,56.00
2022-12-03T06:11:34.186Z,55.90
2022-12-03T06:14:05.497Z,55.81
2022-12-03T06:16:33.703Z,56.01
2022-12-03T06:19:01.784Z,55.94
2022-12-03T06:21:31.225Z,55.92
2022-12-03T06:23:59.990Z,55.94
2022-12-03T06:26:28.080Z,55.81
2022-12-03T06:28:56.096Z,55.68
2022-12-03T06:31:24.214Z,55.78
2022-12-03T06:33:52.286Z,55.71
2022-12-03T06:36:23.230Z,55.57
2022-12-03T06:38:53.033Z,55.51
2022-12-03T06:41:21.486Z,55.43
2022-12-03T06:43:50.048Z,55.40
2022-12-03T06:46:18.189Z,55.28
2022-12-03T06:48:46.260Z,55.32
2022-12-03T06:51:14.245Z,55.40
2022-12-03T06:53:42.257Z,55.41
2022-12-03T06:56:11.698Z,55.44
2022-12-03T06:58:39.752Z,55.36
2022-12-03T07:01:07.773Z,55.37
2022-12-03T07:03:35.897Z,55.35
2022-12-03T07:06:03.964Z,55.26
2022-12-03T07:08:32.018Z,55.23
2022-12-03T07:11:00.087Z,55.58
2022-12-03T07:13:29.490Z,55.48
2022-12-03T07:15:57.655Z,55.37
2022-12-03T07:18:25.764Z,55.25
2022-12-03T07:20:53.812Z,55.45
2022-12-03T07:23:21.905Z,55.39
2022-12-03T07:25:50.021Z,55.56
2022-12-03T07:28:18.013Z,55.51
2022-12-03T07:30:47.445Z,55.58
2022-12-03T07:33:15.532Z,55.45
2022-12-03T07:35:43.556Z,55.57
2022-12-03T07:38:11.603Z,55.50
2022-12-03T07:40:39.752Z,55.52
2022-12-03T07:43:07.836Z,55.57
2022-12-03T07:45:35.933Z,55.61
2022-12-03T07:48:05.448Z,55.54
2022-12-03T07:50:33.541Z,55.52
2022-12-03T07:53:01.590Z,55.42
2022-12-03T07:55:29.613Z,55.28
2022-12-03T07:57:57.720Z,55.39
2022-12-03T08:00:25.889Z,55.56
2022-12-03T08:02:53.967Z,55.32
2022-12-03T08:05:23.373Z,55.52
2022-12-03T08:07:51.699Z,55.77
2022-12-03T08:10:20.010Z,55.66
2022-12-03T08:12:48.302Z,55.46
2022-12-03T08:15:18.713Z,55.35
2022-12-03T08:18:04.025Z,55.10
2022-12-03T08:20:36.350Z,54.01
2022-12-03T08:23:11.077Z,54.49
2022-12-03T08:25:39.201Z,53.90
2022-12-03T08:28:13.888Z,53.82
2022-12-03T08:30:42.564Z,53.69
2022-12-03T08:33:18.885Z,53.62
2022-12-03T08:35:51.296Z,53.53
2022-12-03T08:38:23.399Z,53.42
2022-12-03T08:40:55.427Z,53.28
2022-12-03T08:43:25.686Z,53.30
2022-12-03T08:45:55.277Z,53.46
2022-12-03T08:48:29.190Z,53.47
2022-12-03T08:51:01.963Z,53.34
2022-12-03T08:53:36.069Z,53.51
2022-12-03T08:56:06.708Z,53.42
2022-12-03T08:58:40.582Z,53.33
2022-12-03T09:01:28.326Z,53.36
2022-12-03T09:03:59.119Z,53.56
2022-12-03T09:06:28.557Z,53.65
2022-12-03T09:08:56.618Z,53.39
2022-12-03T09:11:24.677Z,53.46
2022-12-03T09:13:52.709Z,53.23
2022-12-03T09:16:20.993Z,53.22
2022-12-03T09:18:49.066Z,53.49
2022-12-03T09:21:17.091Z,53.49
2022-12-03T09:23:46.651Z,53.31
2022-12-03T09:26:14.724Z,53.30
2022-12-03T09:28:43.016Z,53.34
2022-12-03T09:31:11.127Z,53.27
2022-12-03T09:33:39.137Z,52.98
2022-12-03T09:36:07.364Z,52.94
2022-12-03T09:38:35.449Z,52.91
2022-12-03T09:41:05.065Z,53.36
2022-12-03T09:44:02.880Z,52.63
2022-12-03T09:46:24.713Z,52.86
2022-12-03T09:48:52.801Z,52.93
2022-12-03T09:51:20.902Z,53.18
2022-12-03T09:53:49.317Z,53.12
2022-12-03T09:56:22.201Z,53.09
2022-12-03T09:58:51.034Z,53.07
2022-12-03T10:01:19.468Z,52.94
2022-12-03T10:03:50.342Z,52.85
2022-12-03T10:06:20.993Z,52.72
2022-12-03T10:08:51.887Z,52.32
2022-12-03T10:11:25.026Z,52.18
2022-12-03T10:13:53.796Z,52.24
2022-12-03T10:16:22.870Z,52.23
2022-12-03T10:18:53.665Z,51.92
2022-12-03T10:21:25.754Z,51.97
2022-12-03T10:24:22.467Z,51.78
2022-12-03T10:26:54.108Z,51.76
2022-12-03T10:29:29.855Z,51.60
2022-12-03T10:32:03.189Z,51.18
2022-12-03T10:34:33.256Z,51.36
2022-12-03T10:37:13.742Z,51.29
2022-12-03T10:40:05.387Z,51.41
2022-12-03T10:42:36.730Z,51.47
2022-12-03T10:45:16.964Z,51.45
2022-12-03T10:48:02.701Z,51.35
2022-12-03T10:50:31.086Z,51.37
2022-12-03T10:52:59.299Z,51.12
2022-12-03T10:55:29.412Z,51.37
2022-12-03T10:57:58.994Z,51.19
2022-12-03T11:00:27.107Z,50.87
2022-12-03T11:02:57.158Z,50.86
2022-12-03T11:05:28.555Z,50.77
2022-12-03T11:07:57.358Z,50.90
2022-12-03T11:10:25.889Z,50.25
2022-12-03T11:13:29.958Z,49.82
2022-12-03T11:15:58.484Z,50.44
2022-12-03T11:19:02.392Z,50.43
2022-12-03T11:21:30.895Z,50.41
2022-12-03T11:24:28.907Z,49.69
2022-12-03T11:27:27.264Z,49.08
2022-12-03T11:29:59.065Z,49.44
2022-12-03T11:33:01.434Z,48.78
2022-12-03T11:35:36.906Z,49.53
2022-12-03T11:38:37.864Z,49.79
2022-12-03T11:41:09.541Z,48.70
2022-12-03T11:44:14.307Z,47.97
2022-12-03T11:46:45.891Z,47.81
2022-12-03T11:49:30.073Z,45.54
2022-12-03T11:51:58.993Z,44.77
2022-12-03T11:54:27.453Z,43.26
2022-12-03T11:56:56.131Z,43.35
2022-12-03T11:59:24.148Z,43.22
2022-12-03T12:01:53.555Z,44.13
2022-12-03T12:04:33.373Z,44.70
2022-12-03T12:07:02.638Z,45.73
2022-12-03T12:09:50.975Z,46.04
2022-12-03T12:12:21.066Z,45.98
2022-12-03T12:14:49.170Z,45.95
2022-12-03T12:17:33.412Z,46.12
2022-12-03T12:20:24.660Z,47.06
2022-12-03T12:22:53.643Z,47.28
2022-12-03T12:25:42.109Z,47.02
2022-12-03T12:28:10.295Z,47.25
2022-12-03T12:30:38.313Z,47.15
2022-12-03T12:33:18.984Z,47.28
2022-12-03T12:35:47.089Z,47.45
2022-12-03T12:38:18.041Z,47.67
2022-12-03T12:40:49.178Z,47.19
2022-12-03T12:43:24.909Z,46.99
2022-12-03T12:45:55.897Z,47.05
2022-12-03T12:48:27.546Z,45.90
2022-12-03T12:51:02.365Z,44.80
2022-12-03T12:53:32.745Z,45.26
2022-12-03T12:56:03.189Z,45.28
2022-12-03T12:58:32.862Z,45.60
2022-12-03T13:01:02.219Z,45.99
2022-12-03T13:03:37.696Z,46.15
2022-12-03T13:06:06.181Z,46.20
2022-12-03T13:08:39.370Z,46.69
2022-12-03T13:11:12.552Z,46.75
2022-12-03T13:13:44.299Z,47.02
2022-12-03T13:16:17.638Z,47.57
2022-12-03T13:18:49.272Z,47.70
2022-12-03T13:21:24.404Z,47.79
2022-12-03T13:23:55.045Z,47.77
2022-12-03T13:26:38.611Z,47.96
2022-12-03T13:29:13.694Z,48.18
2022-12-03T13:31:44.209Z,48.44
2022-12-03T13:34:21.661Z,48.46
2022-12-03T13:36:57.024Z,48.83
2022-12-03T13:39:30.471Z,48.89
2022-12-03T13:42:17.967Z,48.95
2022-12-03T13:44:49.092Z,48.94
2022-12-03T13:47:20.521Z,48.81
2022-12-03T13:49:53.361Z,48.97
2022-12-03T13:52:23.848Z,49.15
2022-12-03T13:54:54.293Z,49.50
2022-12-03T13:57:23.676Z,49.56
2022-12-03T13:59:52.243Z,49.59
2022-12-03T14:02:20.544Z,49.63
2022-12-03T14:04:51.344Z,49.82
2022-12-03T14:07:21.057Z,49.85
2022-12-03T14:09:49.065Z,49.92
2022-12-03T14:12:33.595Z,49.79
2022-12-03T14:15:02.117Z,49.66
2022-12-03T14:17:30.797Z,49.66
2022-12-03T14:20:01.692Z,50.02
2022-12-03T14:22:29.758Z,50.06
2022-12-03T14:24:58.570Z,51.04
2022-12-03T14:27:27.521Z,50.52
2022-12-03T14:29:56.030Z,50.66
2022-12-03T14:32:24.309Z,50.83
2022-12-03T14:34:52.592Z,50.77
2022-12-03T14:37:21.948Z,50.86
2022-12-03T14:39:49.961Z,50.83
2022-12-03T14:42:18.371Z,50.89
2022-12-03T14:44:48.290Z,51.24
2022-12-03T14:47:18.269Z,51.11
2022-12-03T14:49:46.485Z,51.43
2022-12-03T14:52:14.508Z,51.37
2022-12-03T14:54:44.052Z,51.45
2022-12-03T14:57:13.554Z,51.43
2022-12-03T14:59:41.888Z,51.34
2022-12-03T15:02:11.105Z,51.50
2022-12-03T15:04:39.388Z,51.64
2022-12-03T15:07:08.010Z,51.62
2022-12-03T15:09:36.252Z,51.64
2022-12-03T15:12:06.184Z,51.72
2022-12-03T15:14:34.220Z,51.76
2022-12-03T15:17:02.315Z,52.18
2022-12-03T15:19:30.445Z,52.38
2022-12-03T15:21:58.429Z,52.31
2022-12-03T15:24:26.410Z,52.33
2022-12-03T15:26:54.493Z,52.27
2022-12-03T15:29:24.900Z,52.41
2022-12-03T15:31:53.063Z,52.62
2022-12-03T15:34:23.036Z,52.69
2022-12-03T15:36:51.587Z,52.81
2022-12-03T15:39:19.612Z,52.94
2022-12-03T15:41:48.309Z,52.91
2022-12-03T15:44:16.337Z,52.80
2022-12-03T15:46:45.804Z,52.78
2022-12-03T15:49:13.887Z,52.72
2022-12-03T15:51:41.933Z,53.10
2022-12-03T15:54:12.318Z,53.08
2022-12-03T15:56:40.455Z,53.18
2022-12-03T15:59:08.515Z,53.32
2022-12-03T16:01:36.676Z,53.36
2022-12-03T16:04:06.403Z,53.46
2022-12-03T16:06:34.404Z,54.33
2022-12-03T16:09:02.382Z,54.13
2022-12-03T16:11:30.439Z,54.22
2022-12-03T16:13:58.520Z,54.94
2022-12-03T16:16:26.543Z,54.71
2022-12-03T16:18:54.638Z,54.69
2022-12-03T16:21:27.008Z,54.68
2022-12-03T16:23:55.608Z,54.73
2022-12-03T16:26:24.607Z,54.79
2022-12-03T16:28:52.849Z,54.75
2022-12-03T16:31:21.625Z,54.72
2022-12-03T16:33:50.242Z,54.55
2022-12-03T16:36:18.527Z,54.55
2022-12-03T16:38:47.928Z,54.65
2022-12-03T16:41:15.929Z,54.65
2022-12-03T16:43:46.176Z,54.84
2022-12-03T16:46:26.143Z,54.98
2022-12-03T16:48:55.307Z,55.14
2022-12-03T16:51:23.728Z,55.12
2022-12-03T16:53:53.553Z,55.06
2022-12-03T16:56:21.827Z,55.04
2022-12-03T16:58:49.816Z,55.08
2022-12-03T17:01:18.433Z,55.28
2022-12-03T17:03:46.533Z,55.86
2022-12-03T17:06:14.561Z,55.97
2022-12-03T17:08:48.814Z,56.02
2022-12-03T17:11:19.350Z,56.22
2022-12-03T17:13:47.655Z,56.23
2022-12-03T17:16:15.907Z,56.51
2022-12-03T17:18:44.042Z,56.67
2022-12-03T17:21:12.096Z,56.99
2022-12-03T17:23:40.128Z,57.43
2022-12-03T17:26:08.140Z,57.87
2022-12-03T17:28:37.504Z,57.80
2022-12-03T17:31:05.856Z,58.03
2022-12-03T17:33:33.912Z,58.05
2022-12-03T17:36:02.132Z,58.11
2022-12-03T17:38:34.117Z,58.14
2022-12-03T17:41:07.373Z,58.13
2022-12-03T17:43:35.439Z,58.03
2022-12-03T17:46:06.671Z,58.06
2022-12-03T17:48:35.324Z,58.15
2022-12-03T17:51:03.813Z,58.07
2022-12-03T17:53:31.833Z,57.94
2022-12-03T17:55:59.836Z,57.76
2022-12-03T17:58:28.596Z,57.70
2022-12-03T18:01:02.079Z,57.61
2022-12-03T18:03:32.437Z,57.43
2022-12-03T18:06:00.476Z,57.22
2022-12-03T18:08:28.612Z,57.13
2022-12-03T18:10:56.626Z,57.11
2022-12-03T18:13:24.622Z,56.95
2022-12-03T18:15:52.688Z,56.90
2022-12-03T18:18:20.722Z,56.88
2022-12-03T18:20:50.178Z,56.82
2022-12-03T18:23:18.261Z,56.77
2022-12-03T18:25:46.263Z,56.81
2022-12-03T18:28:14.324Z,56.75
2022-12-03T18:30:45.141Z,56.73
2022-12-03T18:33:17.240Z,56.70
2022-12-03T18:35:45.517Z,56.58
2022-12-03T18:38:16.917Z,56.46
2022-12-03T18:40:46.380Z,56.52
2022-12-03T18:43:16.220Z,56.36
2022-12-03T18:45:44.321Z,56.20
2022-12-03T18:48:13.828Z,56.29
2022-12-03T18:50:42.641Z,56.10
2022-12-03T18:53:11.507Z,55.95
2022-12-03T18:55:41.814Z,55.90
2022-12-03T18:58:09.957Z,55.94
2022-12-03T19:00:38.379Z,55.69
2022-12-03T19:03:07.276Z,55.54
2022-12-03T19:05:36.216Z,55.90
2022-12-03T19:08:12.322Z,55.49
2022-12-03T19:10:42.284Z,55.93
2022-12-03T19:13:10.412Z,56.29
2022-12-03T19:15:38.599Z,56.50
2022-12-03T19:18:07.484Z,56.48
2022-12-03T19:20:35.846Z,56.42
2022-12-03T19:23:03.891Z,56.52
2022-12-03T19:25:32.111Z,56.39
2022-12-03T19:28:01.491Z,56.52
2022-12-03T19:30:29.485Z,56.60
2022-12-03T19:32:57.524Z,56.55
2022-12-03T19:35:25.537Z,56.59
2022-12-03T19:37:53.567Z,56.54
2022-12-03T19:40:21.563Z,56.36
2022-12-03T19:42:49.497Z,56.28
2022-12-03T19:45:19.070Z,56.26
2022-12-03T19:47:47.080Z,56.23
2022-12-03T19:50:22.704Z,56.46
2022-12-03T19:52:51.536Z,56.41
2022-12-03T19:55:20.498Z,56.36
2022-12-03T19:57:48.580Z,55.97
2022-12-03T20:00:18.596Z,55.97
2022-12-03T20:02:49.477Z,55.74
2022-12-03T20:05:17.774Z,55.74
2022-12-03T20:07:45.816Z,55.78
2022-12-03T20:10:13.948Z,56.08
2022-12-03T20:12:41.952Z,56.11
2022-12-03T20:15:10.822Z,56.06
2022-12-03T20:17:40.286Z,56.09
2022-12-03T20:20:09.529Z,56.26
2022-12-03T20:22:37.537Z,56.29
2022-12-03T20:25:06.022Z,56.32
2022-12-03T20:27:34.028Z,56.39
2022-12-03T20:30:02.075Z,56.32
2022-12-03T20:32:30.082Z,56.49
2022-12-03T20:34:59.610Z,56.45
2022-12-03T20:37:27.632Z,56.39
2022-12-03T20:39:55.805Z,56.35
2022-12-03T20:42:24.001Z,56.24
2022-12-03T20:44:52.753Z,56.07
2022-12-03T20:47:20.910Z,56.06
2022-12-03T20:49:48.950Z,55.82
2022-12-03T20:52:18.331Z,55.90
2022-12-03T20:54:46.398Z,55.51
2022-12-03T20:57:14.392Z,55.61
2022-12-03T20:59:42.455Z,55.54
2022-12-03T21:02:11.422Z,55.29
2022-12-03T21:04:39.600Z,55.28
2022-12-03T21:07:07.588Z,55.09
2022-12-03T21:09:37.020Z,54.88
2022-12-03T21:12:05.353Z,54.73
2022-12-03T21:14:33.595Z,54.46
2022-12-03T21:17:09.720Z,54.26
2022-12-03T21:19:38.769Z,54.07
2022-12-03T21:22:07.272Z,54.02
2022-12-03T21:24:36.839Z,53.64
2022-12-03T21:27:04.981Z,53.73
2022-12-03T21:29:32.952Z,53.81
2022-12-03T21:32:00.966Z,53.88
2022-12-03T21:34:34.357Z,53.83
2022-12-03T21:37:04.737Z,53.73
2022-12-03T21:39:32.800Z,53.62
2022-12-03T21:42:19.371Z,53.61
2022-12-03T21:44:50.276Z,53.65
2022-12-03T21:47:18.383Z,53.75
2022-12-03T21:49:46.522Z,53.78
2022-12-03T21:52:14.543Z,53.64
2022-12-03T21:54:42.536Z,53.62
2022-12-03T21:57:11.935Z,53.37
2022-12-03T21:59:40.095Z,53.49
2022-12-03T22:02:08.223Z,53.59
2022-12-03T22:04:36.387Z,53.50
2022-12-03T22:07:05.411Z,53.34
2022-12-03T22:09:33.903Z,53.14
2022-12-03T22:12:01.962Z,53.28
2022-12-03T22:14:31.645Z,53.30
2022-12-03T22:16:59.772Z,52.94
2022-12-03T22:19:28.199Z,53.08
2022-12-03T22:21:56.342Z,52.88
2022-12-03T22:24:24.373Z,52.87
2022-12-03T22:26:54.796Z,52.91
2022-12-03T22:29:22.978Z,53.07
2022-12-03T22:31:52.407Z,53.17
2022-12-03T22:34:20.472Z,53.12
2022-12-03T22:36:48.581Z,53.27
2022-12-03T22:39:16.581Z,53.23
2022-12-03T22:41:44.645Z,53.16
2022-12-03T22:44:12.647Z,53.04
2022-12-03T22:46:40.764Z,53.36
2022-12-03T22:49:10.245Z,53.33
2022-12-03T22:51:38.292Z,53.25
2022-12-03T22:54:06.745Z,53.39
2022-12-03T22:56:35.000Z,53.43
2022-12-03T22:59:03.002Z,53.80
2022-12-03T23:01:33.082Z,53.67
2022-12-03T23:04:01.776Z,53.73
2022-12-03T23:06:32.449Z,53.78
2022-12-03T23:09:00.654Z,53.86
2022-12-03T23:11:29.082Z,53.94
2022-12-03T23:13:58.910Z,53.92
2022-12-03T23:16:29.381Z,54.20
2022-12-03T23:18:59.289Z,54.17
2022-12-03T23:21:30.142Z,54.15
2022-12-03T23:24:00.794Z,54.19
2022-12-03T23:26:29.500Z,54.36
2022-12-03T23:28:58.160Z,54.44
2022-12-03T23:31:29.409Z,54.43
2022-12-03T23:33:58.937Z,54.67
2022-12-03T23:36:28.756Z,54.64
2022-12-03T23:38:57.034Z,54.86
2022-12-03T23:41:26.789Z,54.81
2022-12-03T23:43:55.161Z,55.16
2022-12-03T23:46:25.139Z,55.43
2022-12-03T23:48:53.366Z,55.44
2022-12-03T23:51:23.332Z,55.61
2022-12-03T23:53:52.840Z,55.61
2022-12-03T23:56:24.389Z,55.52
2022-12-03T23:58:53.767Z,55.36
